createdAt,value
2019-03-20T00:00:00.458Z,1.02
2019-03-20T00:02:26.382Z,1.00
2019-03-20T00:04:52.197Z,0.78
2019-03-20T00:07:18.158Z,0.67
2019-03-20T00:09:43.966Z,0.39
2019-03-20T00:12:09.793Z,0.17
2019-03-20T00:14:35.717Z,0.31
2019-03-20T00:17:03.954Z,0.40
2019-03-20T00:19:29.265Z,0.43
2019-03-20T00:21:55.294Z,0.34
2019-03-20T00:24:21.116Z,0.26
2019-03-20T00:26:46.925Z,0.20
2019-03-20T00:29:12.849Z,0.10
2019-03-20T00:31:38.659Z,0.17
2019-03-20T00:34:04.478Z,0.17
2019-03-20T00:36:30.312Z,-0.04
2019-03-20T00:38:56.151Z,0.07
2019-03-20T00:41:21.953Z,0.07
2019-03-20T00:43:47.790Z,0.11
2019-03-20T00:46:13.626Z,0.16
2019-03-20T00:48:39.432Z,0.24
2019-03-20T00:51:05.245Z,0.23
2019-03-20T00:53:31.056Z,0.24
2019-03-20T00:55:56.972Z,-0.09
2019-03-20T00:58:22.784Z,0.17
2019-03-20T01:00:48.704Z,-0.10
2019-03-20T01:03:14.505Z,-0.37
2019-03-20T01:05:40.327Z,-0.14
2019-03-20T01:08:06.154Z,-0.18
2019-03-20T01:10:32.080Z,-0.24
2019-03-20T01:12:57.892Z,-0.01
2019-03-20T01:15:23.720Z,0.03
2019-03-20T01:17:49.531Z,0.06
2019-03-20T01:20:16.865Z,-0.24
2019-03-20T01:22:42.775Z,0.05
2019-03-20T01:25:09.609Z,0.12
2019-03-20T01:27:35.424Z,0.09
2019-03-20T01:30:01.233Z,0.06
2019-03-20T01:32:27.155Z,0.04
2019-03-20T01:34:53.069Z,0.02
2019-03-20T01:37:18.912Z,-0.13
2019-03-20T01:39:45.042Z,-0.16
2019-03-20T01:42:10.871Z,-0.02
2019-03-20T01:44:36.791Z,0.09
2019-03-20T01:47:02.732Z,0.04
2019-03-20T01:49:28.556Z,0.07
2019-03-20T01:51:54.479Z,0.09
2019-03-20T01:54:20.278Z,0.03
2019-03-20T01:56:46.112Z,-0.04
2019-03-20T01:59:11.918Z,-0.05
2019-03-20T02:01:37.722Z,-0.14
2019-03-20T02:04:03.562Z,-0.08
2019-03-20T02:06:29.377Z,0.01
2019-03-20T02:08:55.811Z,-0.03
2019-03-20T02:11:21.633Z,-0.08
2019-03-20T02:13:47.450Z,-0.22
2019-03-20T02:16:13.270Z,-0.08
2019-03-20T02:18:39.192Z,-0.31
2019-03-20T02:21:05.016Z,-0.25
2019-03-20T02:23:30.847Z,-0.31
2019-03-20T02:25:56.671Z,-0.05
2019-03-20T02:28:22.495Z,-0.04
2019-03-20T02:30:48.326Z,-0.03
2019-03-20T02:33:14.142Z,0.11
2019-03-20T02:35:51.530Z,0.14
2019-03-20T02:38:07.679Z,0.07
2019-03-20T02:40:33.523Z,0.02
2019-03-20T02:42:59.325Z,0.09
2019-03-20T02:45:25.240Z,0.07
2019-03-20T02:47:51.154Z,-0.18
2019-03-20T02:50:16.968Z,-0.32
2019-03-20T02:52:42.794Z,-0.40
2019-03-20T02:55:09.512Z,-0.39
2019-03-20T02:57:35.338Z,-0.17
2019-03-20T03:00:02.047Z,-0.17
2019-03-20T03:02:27.863Z,-0.13
2019-03-20T03:04:53.678Z,-0.18
2019-03-20T03:07:19.514Z,-0.18
2019-03-20T03:09:45.367Z,-0.11
2019-03-20T03:12:11.196Z,-0.18
2019-03-20T03:14:37.014Z,-0.09
2019-03-20T03:17:03.060Z,0.08
2019-03-20T03:19:28.868Z,-0.10
2019-03-20T03:21:54.792Z,-0.14
2019-03-20T03:24:20.619Z,-0.08
2019-03-20T03:26:46.453Z,-0.09
2019-03-20T03:29:12.285Z,0.01
2019-03-20T03:31:38.323Z,-0.02
2019-03-20T03:34:04.153Z,-0.10
2019-03-20T03:36:29.956Z,-0.03
2019-03-20T03:38:55.798Z,-0.22
2019-03-20T03:41:21.643Z,-0.58
2019-03-20T03:43:47.489Z,-0.67
2019-03-20T03:46:13.338Z,-0.63
2019-03-20T03:48:39.168Z,-0.52
2019-03-20T03:51:05.006Z,-0.39
2019-03-20T03:53:30.915Z,-0.45
2019-03-20T03:55:56.797Z,-0.41
2019-03-20T03:58:22.665Z,-0.40
2019-03-20T04:00:48.494Z,-0.33
2019-03-20T04:03:14.287Z,-0.90
2019-03-20T04:05:40.113Z,-0.82
2019-03-20T04:08:05.929Z,-0.97
2019-03-20T04:10:31.767Z,-0.85
2019-03-20T04:12:57.698Z,-0.63
2019-03-20T04:15:23.523Z,-0.78
2019-03-20T04:17:49.363Z,-0.80
2019-03-20T04:20:17.610Z,-0.78
2019-03-20T04:22:43.543Z,-0.66
2019-03-20T04:25:10.344Z,-0.63
2019-03-20T04:27:36.178Z,-0.60
2019-03-20T04:30:04.305Z,-0.68
2019-03-20T04:32:30.139Z,-0.83
2019-03-20T04:34:55.951Z,-0.88
2019-03-20T04:37:21.788Z,-1.00
2019-03-20T04:39:47.736Z,-1.05
2019-03-20T04:42:13.529Z,-1.09
2019-03-20T04:44:39.397Z,-1.21
2019-03-20T04:47:05.224Z,-1.30
2019-03-20T04:49:31.083Z,-1.31
2019-03-20T04:51:56.931Z,-1.23
2019-03-20T04:54:22.769Z,-1.37
2019-03-20T04:56:48.571Z,-1.50
2019-03-20T04:59:14.430Z,-1.46
2019-03-20T05:01:40.246Z,-1.67
2019-03-20T05:04:06.078Z,-1.65
2019-03-20T05:06:31.909Z,-1.57
2019-03-20T05:08:57.757Z,-1.37
2019-03-20T05:11:23.580Z,-1.45
2019-03-20T05:13:49.401Z,-1.43
2019-03-20T05:16:15.248Z,-1.32
2019-03-20T05:18:41.067Z,-1.17
2019-03-20T05:21:06.889Z,-1.00
2019-03-20T05:23:32.729Z,-0.97
2019-03-20T05:25:58.563Z,-1.00
2019-03-20T05:28:24.392Z,-1.01
2019-03-20T05:30:50.241Z,-1.09
2019-03-20T05:33:16.066Z,-1.09
2019-03-20T05:35:41.905Z,-1.07
2019-03-20T05:38:08.013Z,-1.29
2019-03-20T05:40:33.861Z,-1.18
2019-03-20T05:42:59.683Z,-1.04
2019-03-20T05:45:25.487Z,-1.11
2019-03-20T05:47:51.341Z,-1.16
2019-03-20T05:50:17.159Z,-1.30
2019-03-20T05:52:43.146Z,-1.33
2019-03-20T05:55:09.083Z,-1.31
2019-03-20T05:57:34.930Z,-1.37
2019-03-20T06:00:00.747Z,-1.33
2019-03-20T06:02:26.562Z,-1.16
2019-03-20T06:04:52.405Z,-1.07
2019-03-20T06:07:21.740Z,-1.15
2019-03-20T06:09:45.946Z,-1.09
2019-03-20T06:12:11.767Z,-1.13
2019-03-20T06:14:37.610Z,-1.10
2019-03-20T06:17:03.433Z,-1.03
2019-03-20T06:19:29.254Z,-0.96
2019-03-20T06:21:55.082Z,-0.94
2019-03-20T06:24:20.914Z,-0.86
2019-03-20T06:26:46.750Z,-0.80
2019-03-20T06:29:12.598Z,-0.77
2019-03-20T06:31:38.407Z,-0.70
2019-03-20T06:34:04.216Z,-0.79
2019-03-20T06:36:30.063Z,-0.62
2019-03-20T06:38:55.883Z,-0.55
2019-03-20T06:41:21.740Z,-0.50
2019-03-20T06:43:47.637Z,-0.41
2019-03-20T06:46:13.472Z,-0.31
2019-03-20T06:48:39.289Z,-0.17
2019-03-20T06:51:05.101Z,-0.09
2019-03-20T06:53:30.946Z,-0.07
2019-03-20T06:55:56.771Z,-0.01
2019-03-20T06:58:22.597Z,0.08
2019-03-20T07:01:01.248Z,0.20
2019-03-20T07:03:39.645Z,0.31
2019-03-20T07:06:09.284Z,0.47
2019-03-20T07:08:47.748Z,0.85
2019-03-20T07:11:13.870Z,1.08
2019-03-20T07:13:39.678Z,1.30
2019-03-20T07:16:05.484Z,1.32
2019-03-20T07:18:31.404Z,1.47
2019-03-20T07:20:57.230Z,1.56
2019-03-20T07:23:23.046Z,1.81
2019-03-20T07:25:48.851Z,2.10
2019-03-20T07:28:14.672Z,2.58
2019-03-20T07:30:40.472Z,2.35
2019-03-20T07:33:06.296Z,2.70
2019-03-20T07:35:32.122Z,2.85
2019-03-20T07:37:57.959Z,3.00
2019-03-20T07:40:23.783Z,3.03
2019-03-20T07:42:49.886Z,3.37
2019-03-20T07:45:15.716Z,3.72
2019-03-20T07:47:41.547Z,3.78
2019-03-20T07:50:07.578Z,4.01
2019-03-20T07:52:33.383Z,3.80
2019-03-20T07:54:59.216Z,4.00
2019-03-20T07:57:25.041Z,4.42
2019-03-20T07:59:50.870Z,4.11
2019-03-20T08:02:16.680Z,4.34
2019-03-20T08:04:42.526Z,4.38
2019-03-20T08:07:08.338Z,4.54
2019-03-20T08:09:34.213Z,4.75
2019-03-20T08:12:00.087Z,4.98
2019-03-20T08:14:25.898Z,5.28
2019-03-20T08:16:51.716Z,5.22
2019-03-20T08:19:17.536Z,5.34
2019-03-20T08:21:43.389Z,5.28
2019-03-20T08:24:09.193Z,5.65
2019-03-20T08:26:35.009Z,5.56
2019-03-20T08:29:00.812Z,5.87
2019-03-20T08:31:26.644Z,6.15
2019-03-20T08:33:52.454Z,6.08
2019-03-20T08:36:18.287Z,5.90
2019-03-20T08:38:44.399Z,6.04
2019-03-20T08:41:10.235Z,6.16
2019-03-20T08:43:36.062Z,6.04
2019-03-20T08:46:01.904Z,6.42
2019-03-20T08:48:27.732Z,6.37
2019-03-20T08:50:53.550Z,6.19
2019-03-20T08:53:19.391Z,6.31
2019-03-20T08:55:45.249Z,6.75
2019-03-20T08:58:11.084Z,6.72
2019-03-20T09:00:37.010Z,6.69
2019-03-20T09:03:02.852Z,7.10
2019-03-20T09:05:28.680Z,6.84
2019-03-20T09:07:54.516Z,6.90
2019-03-20T09:10:22.848Z,6.84
2019-03-20T09:12:48.676Z,6.90
2019-03-20T09:15:15.313Z,6.70
2019-03-20T09:17:41.252Z,6.63
2019-03-20T09:20:19.961Z,6.63
2019-03-20T09:22:46.063Z,6.33
2019-03-20T09:25:19.137Z,6.32
2019-03-20T09:27:44.960Z,6.42
2019-03-20T09:30:20.920Z,6.42
2019-03-20T09:32:46.725Z,6.50
2019-03-20T09:35:12.550Z,7.08
2019-03-20T09:37:38.370Z,7.20
2019-03-20T09:40:07.832Z,7.13
2019-03-20T09:42:33.640Z,6.85
2019-03-20T09:44:59.466Z,6.85
2019-03-20T09:47:25.291Z,6.80
2019-03-20T09:49:51.216Z,6.75
2019-03-20T09:52:17.041Z,7.09
2019-03-20T09:54:42.862Z,7.17
2019-03-20T09:57:08.688Z,7.17
2019-03-20T09:59:34.521Z,7.32
2019-03-20T10:02:02.780Z,7.32
2019-03-20T10:04:28.093Z,7.11
2019-03-20T10:06:53.917Z,7.11
2019-03-20T10:09:19.755Z,7.16
2019-03-20T10:11:45.577Z,7.14
2019-03-20T10:14:11.377Z,6.92
2019-03-20T10:16:37.199Z,7.28
2019-03-20T10:19:03.010Z,7.37
2019-03-20T10:21:28.837Z,7.07
2019-03-20T10:23:54.654Z,7.18
2019-03-20T10:26:20.466Z,7.33
2019-03-20T10:28:46.283Z,7.23
2019-03-20T10:31:12.088Z,7.65
2019-03-20T10:33:37.915Z,7.75
2019-03-20T10:36:03.728Z,7.82
2019-03-20T10:38:29.553Z,7.86
2019-03-20T10:40:55.381Z,7.86
2019-03-20T10:43:21.186Z,7.83
2019-03-20T10:45:47.013Z,7.82
2019-03-20T10:48:12.858Z,7.88
2019-03-20T10:50:38.681Z,7.93
2019-03-20T10:53:04.501Z,7.92
2019-03-20T10:55:30.317Z,7.91
2019-03-20T10:57:56.351Z,8.28
2019-03-20T11:00:24.747Z,8.82
2019-03-20T11:02:50.667Z,8.72
2019-03-20T11:05:17.307Z,8.72
2019-03-20T11:07:43.236Z,8.96
2019-03-20T11:10:14.930Z,9.12
2019-03-20T11:12:40.768Z,9.10
2019-03-20T11:15:15.005Z,9.11
2019-03-20T11:17:40.877Z,8.64
2019-03-20T11:20:12.074Z,8.64
2019-03-20T11:22:37.911Z,9.22
2019-03-20T11:25:06.938Z,9.12
2019-03-20T11:27:33.410Z,8.53
2019-03-20T11:29:59.399Z,8.53
2019-03-20T11:32:25.234Z,8.61
2019-03-20T11:34:51.045Z,8.49
2019-03-20T11:37:16.895Z,8.92
2019-03-20T11:39:42.995Z,9.25
2019-03-20T11:42:08.805Z,9.17
2019-03-20T11:44:34.638Z,9.09
2019-03-20T11:47:00.456Z,9.41
2019-03-20T11:49:26.282Z,9.54
2019-03-20T11:51:52.081Z,9.93
2019-03-20T11:54:17.898Z,10.61
2019-03-20T11:56:43.703Z,10.59
2019-03-20T11:59:09.519Z,10.66
2019-03-20T12:01:35.335Z,10.34
2019-03-20T12:04:01.181Z,10.36
2019-03-20T12:06:26.989Z,10.84
2019-03-20T12:08:52.793Z,11.54
2019-03-20T12:11:18.619Z,10.43
2019-03-20T12:13:44.428Z,10.22
2019-03-20T12:16:10.268Z,10.69
2019-03-20T12:18:36.085Z,11.05
2019-03-20T12:21:02.210Z,11.02
2019-03-20T12:23:28.041Z,11.94
2019-03-20T12:25:53.865Z,11.01
2019-03-20T12:28:19.668Z,11.33
2019-03-20T12:30:45.504Z,11.12
2019-03-20T12:33:11.350Z,10.98
2019-03-20T12:35:41.465Z,10.62
2019-03-20T12:38:14.425Z,11.04
2019-03-20T12:40:35.118Z,12.21
2019-03-20T12:43:00.977Z,12.75
2019-03-20T12:45:37.031Z,12.82
2019-03-20T12:48:04.360Z,12.91
2019-03-20T12:50:30.197Z,13.02
2019-03-20T12:52:56.342Z,13.21
2019-03-20T12:55:22.161Z,13.33
2019-03-20T12:57:47.996Z,14.01
2019-03-20T13:00:27.160Z,14.03
2019-03-20T13:02:52.198Z,14.30
2019-03-20T13:05:18.715Z,13.52
2019-03-20T13:07:44.988Z,12.85
2019-03-20T13:10:12.916Z,12.86
2019-03-20T13:12:38.767Z,13.07
2019-03-20T13:15:08.209Z,13.07
2019-03-20T13:17:34.064Z,13.91
2019-03-20T13:19:59.899Z,14.18
2019-03-20T13:22:25.743Z,12.98
2019-03-20T13:24:51.584Z,13.95
2019-03-20T13:27:17.419Z,14.07
2019-03-20T13:29:43.276Z,14.34
2019-03-20T13:32:09.094Z,14.66
2019-03-20T13:34:34.986Z,14.33
2019-03-20T13:37:00.800Z,14.56
2019-03-20T13:39:26.644Z,14.20
2019-03-20T13:41:52.493Z,14.59
2019-03-20T13:44:18.336Z,14.73
2019-03-20T13:46:44.163Z,14.73
2019-03-20T13:49:09.997Z,14.73
2019-03-20T13:51:35.824Z,14.93
2019-03-20T13:54:01.649Z,14.12
2019-03-20T13:56:27.477Z,13.17
2019-03-20T13:58:53.307Z,13.64
2019-03-20T14:01:19.129Z,15.05
2019-03-20T14:03:44.955Z,15.17
2019-03-20T14:06:10.794Z,13.25
2019-03-20T14:08:36.924Z,13.22
2019-03-20T14:11:02.765Z,13.04
2019-03-20T14:13:28.689Z,13.43
2019-03-20T14:15:54.517Z,13.75
2019-03-20T14:18:20.334Z,14.30
2019-03-20T14:20:46.179Z,13.36
2019-03-20T14:23:11.991Z,13.52
2019-03-20T14:25:37.882Z,13.41
2019-03-20T14:28:03.698Z,12.00
2019-03-20T14:30:32.848Z,12.74
2019-03-20T14:32:58.661Z,13.50
2019-03-20T14:35:24.650Z,14.61
2019-03-20T14:37:50.646Z,15.54
2019-03-20T14:40:35.325Z,16.08
2019-03-20T14:42:57.124Z,15.40
2019-03-20T14:45:23.029Z,14.92
2019-03-20T14:47:48.856Z,13.40
2019-03-20T14:50:19.748Z,14.27
2019-03-20T14:52:45.587Z,15.15
2019-03-20T14:55:12.626Z,16.13
2019-03-20T14:57:38.441Z,16.42
2019-03-20T15:00:08.149Z,16.50
2019-03-20T15:02:34.017Z,14.62
2019-03-20T15:04:59.822Z,14.14
2019-03-20T15:07:25.644Z,13.54
2019-03-20T15:09:51.483Z,12.94
2019-03-20T15:12:17.307Z,12.83
2019-03-20T15:14:43.136Z,12.67
2019-03-20T15:17:08.951Z,13.71
2019-03-20T15:19:34.775Z,15.10
2019-03-20T15:22:00.587Z,15.95
2019-03-20T15:24:26.535Z,16.51
2019-03-20T15:26:52.316Z,14.23
2019-03-20T15:29:18.156Z,13.93
2019-03-20T15:31:44.007Z,13.54
2019-03-20T15:34:09.842Z,14.55
2019-03-20T15:36:35.649Z,13.23
2019-03-20T15:39:01.470Z,13.74
2019-03-20T15:41:27.308Z,13.33
2019-03-20T15:44:02.122Z,12.99
2019-03-20T15:46:20.894Z,13.89
2019-03-20T15:48:46.726Z,14.34
2019-03-20T15:51:12.547Z,12.79
2019-03-20T15:53:38.374Z,12.03
2019-03-20T15:56:04.309Z,11.21
2019-03-20T15:58:30.155Z,10.98
2019-03-20T16:00:55.995Z,10.51
2019-03-20T16:03:31.765Z,10.28
2019-03-20T16:05:57.620Z,10.33
2019-03-20T16:08:23.422Z,10.33
2019-03-20T16:10:49.262Z,10.05
2019-03-20T16:13:15.100Z,10.15
2019-03-20T16:15:40.934Z,10.30
2019-03-20T16:18:06.760Z,10.44
2019-03-20T16:20:32.591Z,10.82
2019-03-20T16:22:58.422Z,11.08
2019-03-20T16:25:24.246Z,11.11
2019-03-20T16:27:50.068Z,11.02
2019-03-20T16:30:24.299Z,11.16
2019-03-20T16:32:50.244Z,10.68
2019-03-20T16:35:16.256Z,10.68
2019-03-20T16:37:42.086Z,10.24
2019-03-20T16:40:14.136Z,10.24
2019-03-20T16:42:40.086Z,9.92
2019-03-20T16:45:09.694Z,9.92
2019-03-20T16:47:35.557Z,9.71
2019-03-20T16:50:01.644Z,9.71
2019-03-20T16:52:27.510Z,9.45
2019-03-20T16:54:53.345Z,9.39
2019-03-20T16:57:19.183Z,9.37
2019-03-20T16:59:45.025Z,9.47
2019-03-20T17:02:10.867Z,9.41
2019-03-20T17:04:36.707Z,9.26
2019-03-20T17:07:02.635Z,9.31
2019-03-20T17:09:28.474Z,9.38
2019-03-20T17:11:54.303Z,9.25
2019-03-20T17:14:20.372Z,9.40
2019-03-20T17:16:46.253Z,9.36
2019-03-20T17:19:12.083Z,9.36
2019-03-20T17:21:37.891Z,9.34
2019-03-20T17:24:03.714Z,9.29
2019-03-20T17:26:29.518Z,9.14
2019-03-20T17:28:55.342Z,9.08
2019-03-20T17:31:21.174Z,8.93
2019-03-20T17:33:47.053Z,8.85
2019-03-20T17:36:12.863Z,8.80
2019-03-20T17:38:38.680Z,8.85
2019-03-20T17:41:04.517Z,8.56
2019-03-20T17:43:30.326Z,8.36
2019-03-20T17:45:56.245Z,8.42
2019-03-20T17:48:22.051Z,8.31
2019-03-20T17:50:47.866Z,8.30
2019-03-20T17:53:13.685Z,8.12
2019-03-20T17:55:39.498Z,8.21
2019-03-20T17:58:05.321Z,7.91
2019-03-20T18:00:42.421Z,7.69
2019-03-20T18:03:08.449Z,7.59
2019-03-20T18:05:34.631Z,7.52
2019-03-20T18:08:00.483Z,7.55
2019-03-20T18:10:26.297Z,7.52
2019-03-20T18:12:52.137Z,7.34
2019-03-20T18:15:18.049Z,7.35
2019-03-20T18:17:43.880Z,7.28
2019-03-20T18:20:12.202Z,7.00
2019-03-20T18:22:38.057Z,7.07
2019-03-20T18:25:06.865Z,7.02
2019-03-20T18:27:32.702Z,6.89
2019-03-20T18:29:58.546Z,6.40
2019-03-20T18:32:24.429Z,6.22
2019-03-20T18:34:50.226Z,6.27
2019-03-20T18:37:16.059Z,6.23
2019-03-20T18:39:41.895Z,6.30
2019-03-20T18:42:09.503Z,6.16
2019-03-20T18:44:35.468Z,5.77
2019-03-20T18:47:01.301Z,5.71
2019-03-20T18:49:27.134Z,5.74
2019-03-20T18:51:53.064Z,5.79
2019-03-20T18:54:18.918Z,5.68
2019-03-20T18:56:44.751Z,5.41
2019-03-20T18:59:10.609Z,5.20
2019-03-20T19:01:36.442Z,5.11
2019-03-20T19:04:02.396Z,5.37
2019-03-20T19:06:29.014Z,5.52
2019-03-20T19:08:54.958Z,5.16
2019-03-20T19:11:20.814Z,5.21
2019-03-20T19:13:46.648Z,5.13
2019-03-20T19:16:12.502Z,5.06
2019-03-20T19:18:38.312Z,4.98
2019-03-20T19:21:04.265Z,4.89
2019-03-20T19:23:30.095Z,4.43
2019-03-20T19:25:55.921Z,4.02
2019-03-20T19:28:21.768Z,4.01
2019-03-20T19:30:47.609Z,3.99
2019-03-20T19:33:13.419Z,3.96
2019-03-20T19:35:39.351Z,4.18
2019-03-20T19:38:05.180Z,4.17
2019-03-20T19:40:31.016Z,4.23
2019-03-20T19:42:56.874Z,4.17
2019-03-20T19:45:22.719Z,4.25
2019-03-20T19:47:48.565Z,4.31
2019-03-20T19:50:21.335Z,4.21
2019-03-20T19:52:47.199Z,4.02
2019-03-20T19:55:16.435Z,3.73
2019-03-20T19:57:42.289Z,3.45
2019-03-20T20:00:20.649Z,3.86
2019-03-20T20:02:46.515Z,3.85
2019-03-20T20:05:15.921Z,3.85
2019-03-20T20:07:40.625Z,3.35
2019-03-20T20:10:13.539Z,3.35
2019-03-20T20:12:39.393Z,3.23
2019-03-20T20:15:09.034Z,2.50
2019-03-20T20:17:34.904Z,2.83
2019-03-20T20:20:00.840Z,3.05
2019-03-20T20:22:26.669Z,3.11
2019-03-20T20:24:52.529Z,3.15
2019-03-20T20:27:18.387Z,3.30
2019-03-20T20:29:44.252Z,3.22
2019-03-20T20:32:10.108Z,3.23
2019-03-20T20:34:36.011Z,3.23
2019-03-20T20:37:01.948Z,3.21
2019-03-20T20:39:27.805Z,3.25
2019-03-20T20:41:53.650Z,3.26
2019-03-20T20:44:19.496Z,3.22
2019-03-20T20:46:45.337Z,2.79
2019-03-20T20:49:11.168Z,3.02
2019-03-20T20:51:37.004Z,2.87
2019-03-20T20:54:02.945Z,2.80
2019-03-20T20:56:28.763Z,2.52
2019-03-20T20:58:54.605Z,2.45
2019-03-20T21:01:20.438Z,2.69
2019-03-20T21:03:46.268Z,2.62
2019-03-20T21:06:12.137Z,2.59
2019-03-20T21:08:37.954Z,2.70
2019-03-20T21:11:03.809Z,2.55
2019-03-20T21:13:29.643Z,1.85
2019-03-20T21:15:55.492Z,2.00
2019-03-20T21:18:46.299Z,2.07
2019-03-20T21:21:12.138Z,2.08
2019-03-20T21:23:58.160Z,2.22
2019-03-20T21:26:33.787Z,2.17
2019-03-20T21:29:35.218Z,1.57
2019-03-20T21:32:04.861Z,1.44
2019-03-20T21:34:50.188Z,1.50
2019-03-20T21:37:36.629Z,1.70
2019-03-20T21:40:05.595Z,1.71
2019-03-20T21:42:51.848Z,1.73
2019-03-20T21:45:42.745Z,1.75
2019-03-20T21:48:08.587Z,1.90
2019-03-20T21:51:00.794Z,1.96
2019-03-20T21:53:33.229Z,1.93
2019-03-20T21:56:37.862Z,1.90
2019-03-20T21:59:07.508Z,2.01
2019-03-20T22:01:59.496Z,1.87
2019-03-20T22:04:25.331Z,1.48
2019-03-20T22:07:08.336Z,1.62
2019-03-20T22:09:49.906Z,1.57
2019-03-20T22:12:34.453Z,1.69
2019-03-20T22:15:15.818Z,1.79
2019-03-20T22:17:50.830Z,1.73
2019-03-20T22:20:29.037Z,1.71
2019-03-20T22:23:04.406Z,1.51
2019-03-20T22:25:36.803Z,1.50
2019-03-20T22:28:06.433Z,1.56
2019-03-20T22:30:32.272Z,1.51
2019-03-20T22:33:35.325Z,1.49
2019-03-20T22:36:01.284Z,1.25
2019-03-20T22:38:46.159Z,1.33
2019-03-20T22:41:31.035Z,1.27
2019-03-20T22:43:58.656Z,1.27
2019-03-20T22:46:37.131Z,1.05
2019-03-20T22:49:18.637Z,1.02
2019-03-20T22:52:15.119Z,1.03
2019-03-20T22:55:01.389Z,1.12
2019-03-20T22:57:47.851Z,1.21
2019-03-20T23:00:13.681Z,1.28
2019-03-20T23:02:49.253Z,1.04
2019-03-20T23:05:15.085Z,0.89
2019-03-20T23:07:40.901Z,0.99
2019-03-20T23:10:16.147Z,1.02
2019-03-20T23:12:42.372Z,0.94
2019-03-20T23:15:14.163Z,0.62
2019-03-20T23:17:40.017Z,0.53
2019-03-20T23:20:09.644Z,0.49
2019-03-20T23:22:35.459Z,0.21
2019-03-20T23:25:01.280Z,0.27
2019-03-20T23:27:27.105Z,0.20
2019-03-20T23:29:52.939Z,0.20
2019-03-20T23:32:18.850Z,0.18
2019-03-20T23:34:44.740Z,0.24
2019-03-20T23:37:10.580Z,0.33
2019-03-20T23:39:36.395Z,0.26
2019-03-20T23:42:02.557Z,0.22
2019-03-20T23:44:28.394Z,0.23
2019-03-20T23:46:54.413Z,0.47
2019-03-20T23:49:23.034Z,0.59
2019-03-20T23:51:48.878Z,0.45
2019-03-20T23:54:17.396Z,0.33
2019-03-20T23:56:43.218Z,0.56
2019-03-20T23:59:09.040Z,0.64
